createdAt,value
2023-08-29T00:00:05.377Z,74.76
2023-08-29T00:00:15.416Z,74.76
2023-08-29T00:00:25.451Z,74.76
2023-08-29T00:00:35.483Z,74.76
2023-08-29T00:00:45.532Z,74.76
2023-08-29T00:00:55.577Z,74.76
2023-08-29T00:01:05.612Z,74.76
2023-08-29T00:01:15.697Z,74.76
2023-08-29T00:01:25.783Z,74.76
2023-08-29T00:01:35.819Z,74.76
2023-08-29T00:01:45.877Z,74.76
2023-08-29T00:01:55.922Z,74.76
2023-08-29T00:02:05.779Z,74.76
2023-08-29T00:02:15.811Z,74.76
2023-08-29T00:02:25.877Z,74.76
2023-08-29T00:02:35.936Z,74.76
2023-08-29T00:02:45.948Z,74.76
2023-08-29T00:02:56.008Z,74.76
2023-08-29T00:03:06.099Z,74.76
2023-08-29T00:03:16.121Z,74.66
2023-08-29T00:03:26.234Z,74.66
2023-08-29T00:03:36.153Z,74.66
2023-08-29T00:03:46.204Z,74.66
2023-08-29T00:03:56.216Z,74.66
2023-08-29T00:04:06.315Z,74.66
2023-08-29T00:04:16.348Z,74.66
2023-08-29T00:04:26.371Z,74.66
2023-08-29T00:04:36.420Z,74.66
2023-08-29T00:04:46.443Z,74.66
2023-08-29T00:04:56.500Z,74.66
2023-08-29T00:05:06.553Z,74.66
2023-08-29T00:05:16.640Z,74.66
2023-08-29T00:05:26.641Z,74.66
2023-08-29T00:05:36.681Z,74.66
2023-08-29T00:05:46.667Z,74.66
2023-08-29T00:05:56.686Z,74.66
2023-08-29T00:06:06.721Z,74.66
2023-08-29T00:06:16.767Z,74.66
2023-08-29T00:06:26.815Z,74.66
2023-08-29T00:06:36.875Z,74.66
2023-08-29T00:06:46.909Z,74.66
2023-08-29T00:06:56.927Z,74.66
2023-08-29T00:07:06.947Z,74.66
2023-08-29T00:07:16.976Z,74.66
2023-08-29T00:07:27.083Z,74.66
2023-08-29T00:07:37.121Z,74.66
2023-08-29T00:07:47.181Z,74.55
2023-08-29T00:07:57.209Z,74.55
2023-08-29T00:08:07.522Z,74.55
2023-08-29T00:08:17.302Z,74.46
2023-08-29T00:08:27.326Z,74.46
2023-08-29T00:08:37.352Z,74.46
2023-08-29T00:08:47.386Z,74.46
2023-08-29T00:08:57.413Z,74.35
2023-08-29T00:09:07.435Z,74.26
2023-08-29T00:09:17.482Z,74.26
2023-08-29T00:09:27.521Z,74.26
2023-08-29T00:09:37.641Z,74.26
2023-08-29T00:09:47.671Z,74.26
2023-08-29T00:09:57.728Z,74.26
2023-08-29T00:10:07.773Z,74.26
2023-08-29T00:10:17.848Z,74.26
2023-08-29T00:10:27.878Z,74.26
2023-08-29T00:10:37.903Z,74.26
2023-08-29T00:10:47.933Z,74.26
2023-08-29T00:10:57.962Z,74.26
2023-08-29T00:11:08.001Z,74.26
2023-08-29T00:11:18.067Z,74.26
2023-08-29T00:11:28.089Z,74.26
2023-08-29T00:11:38.118Z,74.35
2023-08-29T00:11:48.139Z,74.35
2023-08-29T00:11:58.180Z,74.35
2023-08-29T00:12:08.220Z,74.35
2023-08-29T00:12:18.279Z,74.26
2023-08-29T00:12:28.289Z,74.26
2023-08-29T00:12:38.343Z,74.26
2023-08-29T00:12:48.374Z,74.26
2023-08-29T00:12:58.388Z,74.35
2023-08-29T00:13:08.429Z,74.26
2023-08-29T00:13:18.440Z,74.35
2023-08-29T00:13:28.484Z,74.35
2023-08-29T00:13:38.519Z,74.35
2023-08-29T00:13:48.578Z,74.26
2023-08-29T00:13:58.602Z,74.26
2023-08-29T00:14:08.662Z,74.26
2023-08-29T00:14:18.704Z,74.26
2023-08-29T00:14:28.728Z,74.26
2023-08-29T00:14:38.779Z,74.26
2023-08-29T00:14:48.805Z,74.15
2023-08-29T00:14:58.841Z,74.15
2023-08-29T00:15:08.876Z,74.15
2023-08-29T00:15:18.896Z,74.15
2023-08-29T00:15:28.913Z,74.15
2023-08-29T00:15:38.949Z,74.15
2023-08-29T00:15:49.036Z,74.15
2023-08-29T00:15:59.094Z,74.05
2023-08-29T00:16:09.138Z,74.05
2023-08-29T00:16:19.159Z,74.05
2023-08-29T00:16:29.186Z,73.95
2023-08-29T00:16:39.239Z,73.95
2023-08-29T00:16:49.223Z,73.95
2023-08-29T00:16:59.237Z,73.95
2023-08-29T00:17:09.273Z,73.95
2023-08-29T00:17:19.305Z,73.95
2023-08-29T00:17:29.340Z,74.05
2023-08-29T00:17:39.428Z,74.05
2023-08-29T00:17:49.451Z,74.05
2023-08-29T00:17:59.481Z,74.15
2023-08-29T00:18:09.808Z,74.15
2023-08-29T00:18:19.509Z,74.15
2023-08-29T00:18:29.548Z,74.15
2023-08-29T00:18:39.572Z,74.15
2023-08-29T00:18:49.592Z,74.15
2023-08-29T00:18:59.602Z,74.15
2023-08-29T00:19:09.624Z,74.15
2023-08-29T00:19:19.713Z,74.26
2023-08-29T00:19:29.742Z,74.26
2023-08-29T00:19:39.756Z,74.35
2023-08-29T00:19:49.834Z,74.35
2023-08-29T00:19:59.847Z,74.46
2023-08-29T00:20:09.877Z,74.55
2023-08-29T00:20:19.887Z,74.55
2023-08-29T00:20:29.905Z,74.66
2023-08-29T00:20:39.923Z,74.66
2023-08-29T00:20:49.940Z,74.66
2023-08-29T00:20:59.969Z,74.76
2023-08-29T00:21:09.983Z,74.76
2023-08-29T00:21:20.016Z,74.76
2023-08-29T00:21:30.036Z,74.76
2023-08-29T00:21:40.052Z,74.76
2023-08-29T00:21:50.088Z,74.76
2023-08-29T00:22:00.142Z,74.76
2023-08-29T00:22:10.128Z,74.76
2023-08-29T00:22:20.160Z,74.76
2023-08-29T00:22:30.173Z,74.66
2023-08-29T00:22:40.210Z,74.66
2023-08-29T00:22:50.250Z,74.66
2023-08-29T00:23:00.269Z,74.66
2023-08-29T00:23:10.348Z,74.66
2023-08-29T00:23:20.387Z,74.66
2023-08-29T00:23:30.377Z,74.66
2023-08-29T00:23:40.418Z,74.66
2023-08-29T00:23:50.471Z,74.66
2023-08-29T00:24:00.465Z,74.66
2023-08-29T00:24:10.461Z,74.66
2023-08-29T00:24:20.581Z,74.66
2023-08-29T00:24:30.606Z,74.66
2023-08-29T00:24:40.622Z,74.66
2023-08-29T00:24:50.616Z,74.66
2023-08-29T00:25:00.623Z,74.66
2023-08-29T00:25:10.649Z,74.76
2023-08-29T00:25:20.642Z,74.76
2023-08-29T00:25:30.672Z,74.76
2023-08-29T00:25:40.673Z,74.76
2023-08-29T00:25:50.691Z,74.86
2023-08-29T00:26:00.709Z,74.86
2023-08-29T00:26:10.716Z,74.86
2023-08-29T00:26:20.729Z,74.96
2023-08-29T00:26:30.734Z,74.96
2023-08-29T00:26:40.751Z,74.86
2023-08-29T00:26:50.770Z,74.86
2023-08-29T00:27:00.767Z,74.86
2023-08-29T00:27:10.772Z,74.96
2023-08-29T00:27:20.778Z,74.96
2023-08-29T00:27:30.782Z,74.96
2023-08-29T00:27:40.801Z,74.96
2023-08-29T00:27:50.812Z,74.96
2023-08-29T00:28:00.832Z,74.96
2023-08-29T00:28:10.859Z,74.96
2023-08-29T00:28:20.939Z,74.86
2023-08-29T00:28:30.942Z,74.86
2023-08-29T00:28:40.962Z,74.86
2023-08-29T00:28:50.988Z,74.86
2023-08-29T00:29:00.981Z,74.96
2023-08-29T00:29:10.979Z,74.86
2023-08-29T00:29:21.004Z,74.96
2023-08-29T00:29:31.007Z,74.96
2023-08-29T00:29:40.999Z,74.96
2023-08-29T00:29:51.000Z,74.96
2023-08-29T00:30:01.008Z,74.96
2023-08-29T00:30:11.033Z,74.96
2023-08-29T00:30:21.042Z,74.96
2023-08-29T00:30:31.063Z,74.96
2023-08-29T00:30:44.679Z,74.96
2023-08-29T00:30:51.046Z,74.96
2023-08-29T00:31:01.059Z,74.96
2023-08-29T00:31:11.074Z,74.96
2023-08-29T00:31:21.082Z,74.96
2023-08-29T00:31:31.118Z,74.96
2023-08-29T00:31:41.145Z,74.96
2023-08-29T00:31:51.168Z,74.96
2023-08-29T00:32:01.175Z,74.96
2023-08-29T00:32:11.213Z,74.96
2023-08-29T00:32:21.241Z,74.96
2023-08-29T00:32:31.255Z,74.96
2023-08-29T00:32:41.290Z,74.96
2023-08-29T00:32:51.316Z,74.96
2023-08-29T00:33:01.381Z,74.96
2023-08-29T00:33:11.381Z,74.96
2023-08-29T00:33:21.374Z,74.96
2023-08-29T00:33:31.392Z,74.96
2023-08-29T00:33:41.398Z,74.96
2023-08-29T00:33:51.402Z,74.96
2023-08-29T00:34:01.416Z,74.96
2023-08-29T00:34:11.436Z,74.96
2023-08-29T00:34:21.424Z,74.96
2023-08-29T00:34:31.425Z,74.86
2023-08-29T00:34:41.429Z,74.86
2023-08-29T00:34:51.445Z,74.86
2023-08-29T00:35:01.484Z,74.86
2023-08-29T00:35:11.484Z,74.86
2023-08-29T00:35:21.492Z,74.86
2023-08-29T00:35:31.519Z,74.86
2023-08-29T00:35:41.571Z,74.86
2023-08-29T00:35:51.595Z,74.86
2023-08-29T00:36:01.614Z,74.86
2023-08-29T00:36:11.628Z,74.86
2023-08-29T00:36:21.683Z,74.76
2023-08-29T00:36:31.702Z,74.86
2023-08-29T00:36:41.758Z,74.76
2023-08-29T00:36:51.808Z,74.76
2023-08-29T00:37:01.841Z,74.76
2023-08-29T00:37:11.873Z,74.76
2023-08-29T00:37:21.908Z,74.76
2023-08-29T00:37:31.943Z,74.76
2023-08-29T00:37:41.960Z,74.76
2023-08-29T00:37:52.008Z,74.76
2023-08-29T00:38:02.176Z,74.76
2023-08-29T00:38:12.021Z,74.76
2023-08-29T00:38:22.059Z,74.76
2023-08-29T00:38:32.100Z,74.76
2023-08-29T00:38:42.132Z,74.76
2023-08-29T00:38:52.173Z,74.76
2023-08-29T00:39:02.190Z,74.76
2023-08-29T00:39:12.260Z,74.76
2023-08-29T00:39:22.325Z,74.76
2023-08-29T00:39:32.370Z,74.66
2023-08-29T00:39:42.421Z,74.66
2023-08-29T00:39:52.452Z,74.66
2023-08-29T00:40:02.522Z,74.66
2023-08-29T00:40:12.539Z,74.66
2023-08-29T00:40:22.570Z,74.66
2023-08-29T00:40:32.609Z,74.66
2023-08-29T00:40:42.630Z,74.66
2023-08-29T00:40:52.653Z,74.76
2023-08-29T00:41:02.698Z,74.69
2023-08-29T00:41:12.749Z,74.76
2023-08-29T00:41:22.790Z,74.79
2023-08-29T00:41:32.825Z,74.79
2023-08-29T00:41:42.852Z,74.79
2023-08-29T00:41:52.896Z,74.79
2023-08-29T00:42:02.924Z,74.79
2023-08-29T00:42:12.940Z,74.90
2023-08-29T00:42:23.067Z,74.90
2023-08-29T00:42:33.106Z,74.90
2023-08-29T00:42:43.115Z,74.90
2023-08-29T00:42:53.156Z,74.90
2023-08-29T00:43:03.186Z,74.99
2023-08-29T00:43:13.208Z,74.99
2023-08-29T00:43:23.265Z,74.99
2023-08-29T00:43:33.292Z,74.99
2023-08-29T00:43:43.313Z,75.10
2023-08-29T00:43:53.342Z,75.10
2023-08-29T00:44:03.384Z,75.10
2023-08-29T00:44:13.423Z,75.10
2023-08-29T00:44:23.459Z,75.10
2023-08-29T00:44:33.503Z,75.10
2023-08-29T00:44:43.532Z,75.10
2023-08-29T00:44:53.577Z,75.10
2023-08-29T00:45:03.617Z,75.10
2023-08-29T00:45:13.654Z,75.10
2023-08-29T00:45:23.698Z,75.10
2023-08-29T00:45:33.752Z,75.10
2023-08-29T00:45:43.865Z,74.99
2023-08-29T00:45:53.931Z,74.99
2023-08-29T00:46:03.970Z,74.99
2023-08-29T00:46:14.036Z,74.99
2023-08-29T00:46:24.084Z,74.99
2023-08-29T00:46:34.085Z,74.99
2023-08-29T00:46:44.129Z,74.99
2023-08-29T00:46:54.146Z,74.99
2023-08-29T00:47:04.169Z,74.99
2023-08-29T00:47:14.202Z,75.10
2023-08-29T00:47:24.279Z,75.10
2023-08-29T00:47:34.301Z,75.10
2023-08-29T00:47:44.369Z,75.10
2023-08-29T00:47:54.409Z,75.10
2023-08-29T00:48:05.282Z,75.10
2023-08-29T00:48:14.484Z,75.20
2023-08-29T00:48:24.508Z,75.10
2023-08-29T00:48:34.548Z,75.10
2023-08-29T00:48:44.577Z,75.10
2023-08-29T00:48:54.615Z,75.10
2023-08-29T00:49:04.653Z,75.10
2023-08-29T00:49:14.704Z,75.10
2023-08-29T00:49:24.749Z,75.10
2023-08-29T00:49:34.843Z,75.10
2023-08-29T00:49:44.880Z,75.10
2023-08-29T00:49:54.911Z,75.10
2023-08-29T00:50:04.957Z,75.10
2023-08-29T00:50:14.972Z,75.10
2023-08-29T00:50:25.006Z,75.10
2023-08-29T00:50:35.040Z,75.10
2023-08-29T00:50:45.069Z,75.10
2023-08-29T00:50:55.113Z,75.10
2023-08-29T00:51:05.168Z,75.10
2023-08-29T00:51:15.207Z,75.20
2023-08-29T00:51:25.225Z,75.20
2023-08-29T00:51:35.287Z,75.20
2023-08-29T00:51:45.306Z,75.20
2023-08-29T00:51:55.366Z,75.20
2023-08-29T00:52:05.380Z,75.20
2023-08-29T00:52:15.478Z,75.20
2023-08-29T00:52:25.513Z,75.20
2023-08-29T00:52:35.557Z,75.20
2023-08-29T00:52:45.583Z,75.20
2023-08-29T00:52:55.654Z,75.20
2023-08-29T00:53:05.667Z,75.20
2023-08-29T00:53:15.723Z,75.20
2023-08-29T00:53:25.744Z,75.20
2023-08-29T00:53:35.816Z,75.20
2023-08-29T00:53:45.877Z,75.30
2023-08-29T00:53:55.919Z,75.30
2023-08-29T00:54:05.967Z,75.20
2023-08-29T00:54:16.000Z,75.20
2023-08-29T00:54:26.024Z,75.20
2023-08-29T00:54:36.048Z,75.20
2023-08-29T00:54:46.065Z,75.20
2023-08-29T00:54:56.107Z,75.20
2023-08-29T00:55:06.144Z,75.20
2023-08-29T00:55:16.191Z,75.20
2023-08-29T00:55:26.209Z,75.20
2023-08-29T00:55:36.243Z,75.20
2023-08-29T00:55:46.279Z,75.20
2023-08-29T00:55:56.321Z,75.20
2023-08-29T00:56:06.348Z,75.20
2023-08-29T00:56:16.376Z,75.20
2023-08-29T00:56:26.404Z,75.20
2023-08-29T00:56:36.442Z,75.10
2023-08-29T00:56:46.483Z,75.10
2023-08-29T00:56:56.524Z,75.10
2023-08-29T00:57:06.553Z,75.10
2023-08-29T00:57:16.582Z,75.20
2023-08-29T00:57:26.617Z,75.20
2023-08-29T00:57:36.627Z,75.20
2023-08-29T00:57:46.644Z,75.20
2023-08-29T00:57:56.685Z,75.20
2023-08-29T00:58:07.063Z,75.20
2023-08-29T00:58:16.719Z,75.20
2023-08-29T00:58:26.760Z,75.20
2023-08-29T00:58:36.794Z,75.20
2023-08-29T00:58:46.852Z,75.20
2023-08-29T00:58:56.843Z,75.20
2023-08-29T00:59:06.881Z,75.20
2023-08-29T00:59:16.916Z,75.20
2023-08-29T00:59:26.956Z,75.20
2023-08-29T00:59:36.973Z,75.20
2023-08-29T00:59:47.030Z,75.20
2023-08-29T00:59:57.053Z,75.20
2023-08-29T01:00:07.092Z,75.20
2023-08-29T01:00:17.127Z,75.20
2023-08-29T01:00:27.118Z,75.20
2023-08-29T01:00:37.173Z,75.30
2023-08-29T01:00:47.233Z,75.30
2023-08-29T01:00:57.256Z,75.30
2023-08-29T01:01:07.384Z,75.30
2023-08-29T01:01:17.427Z,75.30
2023-08-29T01:01:27.481Z,75.20
2023-08-29T01:01:37.565Z,75.20
2023-08-29T01:01:47.660Z,75.30
2023-08-29T01:01:57.687Z,75.20
2023-08-29T01:02:07.748Z,75.20
2023-08-29T01:02:17.791Z,75.20
2023-08-29T01:02:27.803Z,75.20
2023-08-29T01:02:37.896Z,75.20
2023-08-29T01:02:47.922Z,75.20
2023-08-29T01:02:58.023Z,75.20
2023-08-29T01:03:08.098Z,75.20
2023-08-29T01:03:18.272Z,75.20
2023-08-29T01:03:28.184Z,75.20
2023-08-29T01:03:38.241Z,75.20
2023-08-29T01:03:48.385Z,75.20
2023-08-29T01:03:58.434Z,75.20
2023-08-29T01:04:08.431Z,75.20
2023-08-29T01:04:18.468Z,75.20
2023-08-29T01:04:28.505Z,75.30
2023-08-29T01:04:38.514Z,75.30
2023-08-29T01:04:48.540Z,75.30
2023-08-29T01:04:58.574Z,75.40
2023-08-29T01:05:08.607Z,75.40
2023-08-29T01:05:18.648Z,75.30
2023-08-29T01:05:28.659Z,75.30
2023-08-29T01:05:38.684Z,75.30
2023-08-29T01:05:48.725Z,75.30
2023-08-29T01:05:58.777Z,75.40
2023-08-29T01:06:08.797Z,75.40
2023-08-29T01:06:18.817Z,75.43
2023-08-29T01:06:28.834Z,75.50
2023-08-29T01:06:38.951Z,75.54
2023-08-29T01:06:48.958Z,75.54
2023-08-29T01:06:58.987Z,75.63
2023-08-29T01:07:09.017Z,75.54
2023-08-29T01:07:19.040Z,75.54
2023-08-29T01:07:29.082Z,75.54
2023-08-29T01:07:39.150Z,75.54
2023-08-29T01:07:49.175Z,75.54
2023-08-29T01:07:59.197Z,75.54
2023-08-29T01:08:09.265Z,75.63
2023-08-29T01:08:19.282Z,75.63
2023-08-29T01:08:29.322Z,75.63
2023-08-29T01:08:39.342Z,75.63
2023-08-29T01:08:49.369Z,75.63
2023-08-29T01:08:59.401Z,75.63
2023-08-29T01:09:09.441Z,75.63
2023-08-29T01:09:19.514Z,75.74
2023-08-29T01:09:29.544Z,75.63
2023-08-29T01:09:45.600Z,75.74
2023-08-29T01:09:50.177Z,75.74
2023-08-29T01:10:00.205Z,75.74
2023-08-29T01:10:10.230Z,75.74
2023-08-29T01:10:20.275Z,75.74
2023-08-29T01:10:30.303Z,75.63
2023-08-29T01:10:50.359Z,75.63
2023-08-29T01:11:00.391Z,75.74
2023-08-29T01:11:10.446Z,75.74
2023-08-29T01:11:20.498Z,75.63
2023-08-29T01:11:30.523Z,75.63
2023-08-29T01:11:40.594Z,75.63
2023-08-29T01:11:50.642Z,75.63
2023-08-29T01:12:00.679Z,75.63
2023-08-29T01:12:10.736Z,75.63
2023-08-29T01:12:20.818Z,75.63
2023-08-29T01:12:30.891Z,75.63
2023-08-29T01:12:40.869Z,75.63
2023-08-29T01:12:50.908Z,75.74
2023-08-29T01:13:00.946Z,75.74
2023-08-29T01:13:10.996Z,75.74
2023-08-29T01:13:21.032Z,75.74
2023-08-29T01:13:31.076Z,75.74
2023-08-29T01:13:41.102Z,75.74
2023-08-29T01:13:51.142Z,75.74
2023-08-29T01:14:01.197Z,75.74
2023-08-29T01:14:11.244Z,75.74
2023-08-29T01:14:21.262Z,75.84
2023-08-29T01:14:31.303Z,75.84
2023-08-29T01:14:41.383Z,75.74
2023-08-29T01:14:51.406Z,75.74
2023-08-29T01:15:01.475Z,75.74
2023-08-29T01:15:11.478Z,75.84
2023-08-29T01:15:21.536Z,75.84
2023-08-29T01:15:31.560Z,75.84
2023-08-29T01:15:41.643Z,75.84
2023-08-29T01:15:51.826Z,75.84
2023-08-29T01:16:01.738Z,75.84
2023-08-29T01:16:11.841Z,75.84
2023-08-29T01:16:21.931Z,75.94
2023-08-29T01:16:31.958Z,75.94
2023-08-29T01:16:42.021Z,75.94
2023-08-29T01:16:52.058Z,75.94
2023-08-29T01:17:02.113Z,75.94
2023-08-29T01:17:12.207Z,75.94
2023-08-29T01:17:22.218Z,75.94
2023-08-29T01:17:32.276Z,75.94
2023-08-29T01:17:42.351Z,75.94
2023-08-29T01:17:52.426Z,75.94
2023-08-29T01:18:02.464Z,75.94
2023-08-29T01:18:12.487Z,76.04
2023-08-29T01:18:22.530Z,76.04
2023-08-29T01:18:32.552Z,76.04
2023-08-29T01:18:42.665Z,76.04
2023-08-29T01:18:52.679Z,76.04
2023-08-29T01:19:02.741Z,76.04
2023-08-29T01:19:12.785Z,76.04
2023-08-29T01:19:22.829Z,76.04
2023-08-29T01:19:32.858Z,76.04
2023-08-29T01:19:42.906Z,76.04
2023-08-29T01:19:52.929Z,76.04
2023-08-29T01:20:02.972Z,76.04
2023-08-29T01:20:12.992Z,76.04
2023-08-29T01:20:23.038Z,76.04
2023-08-29T01:20:33.060Z,76.04
2023-08-29T01:20:43.091Z,76.04
2023-08-29T01:20:53.127Z,76.04
2023-08-29T01:21:03.154Z,76.04
2023-08-29T01:21:13.196Z,76.04
2023-08-29T01:21:23.227Z,76.14
2023-08-29T01:21:33.257Z,76.14
2023-08-29T01:21:43.279Z,76.14
2023-08-29T01:21:53.314Z,76.14
2023-08-29T01:22:03.362Z,76.24
2023-08-29T01:22:13.404Z,76.24
2023-08-29T01:22:23.420Z,76.24
2023-08-29T01:22:33.454Z,76.28
2023-08-29T01:22:43.519Z,76.24
2023-08-29T01:23:04.022Z,76.24
2023-08-29T01:23:14.028Z,76.28
2023-08-29T01:23:15.716Z,76.38
2023-08-29T01:23:25.400Z,76.24
2023-08-29T01:23:35.416Z,76.28
2023-08-29T01:23:45.433Z,76.24
2023-08-29T01:23:55.462Z,76.28
2023-08-29T01:24:05.509Z,76.24
2023-08-29T01:24:15.512Z,76.24
2023-08-29T01:24:25.584Z,76.24
2023-08-29T01:24:35.589Z,76.24
2023-08-29T01:24:45.634Z,76.24
2023-08-29T01:24:55.687Z,76.24
2023-08-29T01:25:05.732Z,76.24
2023-08-29T01:25:15.769Z,76.24
2023-08-29T01:25:25.826Z,76.24
2023-08-29T01:25:35.864Z,76.24
2023-08-29T01:25:45.904Z,76.14
2023-08-29T01:25:56.004Z,76.14
2023-08-29T01:26:06.022Z,76.14
2023-08-29T01:26:16.061Z,76.14
2023-08-29T01:26:26.102Z,76.04
2023-08-29T01:26:36.138Z,76.04
2023-08-29T01:26:46.170Z,76.04
2023-08-29T01:26:56.201Z,76.04
2023-08-29T01:27:06.243Z,76.04
2023-08-29T01:27:16.287Z,76.04
2023-08-29T01:27:26.323Z,76.04
2023-08-29T01:27:36.376Z,76.04
2023-08-29T01:27:46.423Z,76.04
2023-08-29T01:27:56.443Z,76.04
2023-08-29T01:28:06.852Z,76.04
2023-08-29T01:28:16.544Z,76.04
2023-08-29T01:28:26.594Z,76.04
2023-08-29T01:28:36.622Z,75.94
2023-08-29T01:28:46.684Z,75.94
2023-08-29T01:28:56.690Z,75.94
2023-08-29T01:29:06.733Z,75.94
2023-08-29T01:29:16.813Z,75.94
2023-08-29T01:29:26.864Z,75.94
2023-08-29T01:29:36.894Z,75.94
2023-08-29T01:29:46.933Z,75.84
2023-08-29T01:29:56.963Z,75.84
2023-08-29T01:30:07.025Z,75.84
2023-08-29T01:30:17.059Z,75.84
2023-08-29T01:30:27.133Z,75.84
2023-08-29T01:30:37.170Z,75.84
2023-08-29T01:30:47.258Z,75.84
2023-08-29T01:30:57.340Z,75.84
2023-08-29T01:31:07.382Z,75.84
2023-08-29T01:31:17.416Z,75.84
2023-08-29T01:31:27.463Z,75.74
2023-08-29T01:31:37.603Z,75.84
2023-08-29T01:31:47.690Z,75.84
2023-08-29T01:31:57.715Z,75.74
2023-08-29T01:32:07.768Z,75.84
2023-08-29T01:32:17.810Z,75.74
2023-08-29T01:32:27.932Z,75.74
2023-08-29T01:32:37.991Z,75.84
2023-08-29T01:32:48.081Z,75.84
2023-08-29T01:32:58.100Z,75.74
2023-08-29T01:33:08.180Z,75.74
2023-08-29T01:33:18.231Z,75.74
2023-08-29T01:33:28.302Z,75.74
2023-08-29T01:33:38.331Z,75.74
2023-08-29T01:33:48.389Z,75.74
2023-08-29T01:33:58.414Z,75.74
2023-08-29T01:34:08.465Z,75.74
2023-08-29T01:34:18.490Z,75.74
2023-08-29T01:34:28.524Z,75.74
2023-08-29T01:34:38.573Z,75.74
2023-08-29T01:34:48.608Z,75.63
2023-08-29T01:34:58.655Z,75.63
2023-08-29T01:35:08.704Z,75.63
2023-08-29T01:35:18.740Z,75.63
2023-08-29T01:35:28.852Z,75.63
2023-08-29T01:35:38.884Z,75.63
2023-08-29T01:35:48.915Z,75.63
2023-08-29T01:35:58.942Z,75.63
2023-08-29T01:36:09.030Z,75.63
2023-08-29T01:36:19.059Z,75.63
2023-08-29T01:36:29.093Z,75.63
2023-08-29T01:36:39.086Z,75.63
2023-08-29T01:36:49.134Z,75.63
2023-08-29T01:36:59.145Z,75.54
2023-08-29T01:37:09.173Z,75.54
2023-08-29T01:37:19.202Z,75.54
2023-08-29T01:37:29.221Z,75.54
2023-08-29T01:37:39.254Z,75.54
2023-08-29T01:37:49.294Z,75.54
2023-08-29T01:37:59.333Z,75.54
2023-08-29T01:38:09.384Z,75.54
2023-08-29T01:38:19.498Z,75.54
2023-08-29T01:38:29.547Z,75.63
2023-08-29T01:38:39.588Z,75.63
2023-08-29T01:38:49.611Z,75.63
2023-08-29T01:38:59.645Z,75.63
2023-08-29T01:39:09.723Z,75.63
2023-08-29T01:39:19.762Z,75.63
2023-08-29T01:39:29.809Z,75.63
2023-08-29T01:39:39.874Z,75.63
2023-08-29T01:39:49.961Z,75.63
2023-08-29T01:39:59.990Z,75.63
2023-08-29T01:40:10.032Z,75.63
2023-08-29T01:40:20.071Z,75.63
2023-08-29T01:40:30.115Z,75.63
2023-08-29T01:40:40.149Z,75.63
2023-08-29T01:40:50.206Z,75.54
2023-08-29T01:41:00.253Z,75.54
2023-08-29T01:41:10.276Z,75.63
2023-08-29T01:41:20.297Z,75.54
2023-08-29T01:41:30.337Z,75.54
2023-08-29T01:41:40.362Z,75.54
2023-08-29T01:41:50.415Z,75.54
2023-08-29T01:42:00.448Z,75.43
2023-08-29T01:42:10.472Z,75.43
2023-08-29T01:42:20.484Z,75.43
2023-08-29T01:42:30.534Z,75.43
2023-08-29T01:42:40.564Z,75.54
2023-08-29T01:42:50.637Z,75.54
2023-08-29T01:43:00.668Z,75.54
2023-08-29T01:43:10.721Z,75.54
2023-08-29T01:43:20.762Z,75.43
2023-08-29T01:43:30.815Z,75.43
2023-08-29T01:43:40.844Z,75.43
2023-08-29T01:43:50.883Z,75.43
2023-08-29T01:44:00.915Z,75.43
2023-08-29T01:44:10.993Z,75.43
2023-08-29T01:44:21.036Z,75.34
2023-08-29T01:44:31.073Z,75.34
2023-08-29T01:44:41.108Z,75.34
2023-08-29T01:44:51.225Z,75.23
2023-08-29T01:45:01.284Z,75.23
2023-08-29T01:45:11.318Z,75.23
2023-08-29T01:45:21.425Z,75.34
2023-08-29T01:45:31.561Z,75.23
2023-08-29T01:45:41.568Z,75.23
2023-08-29T01:45:51.577Z,75.23
2023-08-29T01:46:01.625Z,75.23
2023-08-29T01:46:11.659Z,75.23
2023-08-29T01:46:21.740Z,75.23
2023-08-29T01:46:31.765Z,75.34
2023-08-29T01:46:41.763Z,75.34
2023-08-29T01:46:51.814Z,75.34
2023-08-29T01:47:01.836Z,75.34
2023-08-29T01:47:11.885Z,75.34
2023-08-29T01:47:21.918Z,75.34
2023-08-29T01:47:32.001Z,75.34
2023-08-29T01:47:42.053Z,75.34
2023-08-29T01:47:52.086Z,75.34
2023-08-29T01:48:02.183Z,75.34
2023-08-29T01:48:12.366Z,75.34
2023-08-29T01:48:22.323Z,75.34
2023-08-29T01:48:32.368Z,75.34
2023-08-29T01:48:42.429Z,75.34
2023-08-29T01:48:52.449Z,75.34
2023-08-29T01:49:02.527Z,75.34
2023-08-29T01:49:12.594Z,75.34
2023-08-29T01:49:22.632Z,75.34
2023-08-29T01:49:32.675Z,75.34
2023-08-29T01:49:42.711Z,75.23
2023-08-29T01:49:52.744Z,75.23
2023-08-29T01:50:02.778Z,75.23
2023-08-29T01:50:12.901Z,75.23
2023-08-29T01:50:22.921Z,75.23
2023-08-29T01:50:32.933Z,75.34
2023-08-29T01:50:42.955Z,75.23
2023-08-29T01:50:53.014Z,75.34
2023-08-29T01:51:03.037Z,75.23
2023-08-29T01:51:13.105Z,75.34
2023-08-29T01:51:23.127Z,75.34
2023-08-29T01:51:33.169Z,75.23
2023-08-29T01:51:43.210Z,75.23
2023-08-29T01:51:53.261Z,75.23
2023-08-29T01:52:03.287Z,75.23
2023-08-29T01:52:13.387Z,75.34
2023-08-29T01:52:23.431Z,75.34
2023-08-29T01:52:33.452Z,75.34
2023-08-29T01:52:43.516Z,75.43
2023-08-29T01:52:53.544Z,75.43
2023-08-29T01:53:03.592Z,75.43
2023-08-29T01:53:13.623Z,75.43
2023-08-29T01:53:23.679Z,75.43
2023-08-29T01:53:33.697Z,75.43
2023-08-29T01:53:43.720Z,75.43
2023-08-29T01:53:53.754Z,75.43
2023-08-29T01:54:03.797Z,75.43
2023-08-29T01:54:13.820Z,75.54
2023-08-29T01:54:23.854Z,75.54
2023-08-29T01:54:33.877Z,75.54
2023-08-29T01:54:43.905Z,75.54
2023-08-29T01:54:53.951Z,75.54
2023-08-29T01:55:03.992Z,75.54
2023-08-29T01:55:14.045Z,75.54
2023-08-29T01:55:24.063Z,75.54
2023-08-29T01:55:34.107Z,75.54
2023-08-29T01:55:44.145Z,75.54
2023-08-29T01:55:54.174Z,75.54
2023-08-29T01:56:04.207Z,75.54
2023-08-29T01:56:14.255Z,75.54
2023-08-29T01:56:24.302Z,75.54
2023-08-29T01:56:34.349Z,75.54
2023-08-29T01:56:44.365Z,75.54
2023-08-29T01:56:54.400Z,75.54
2023-08-29T01:57:04.445Z,75.54
2023-08-29T01:57:14.507Z,75.54
2023-08-29T01:57:24.558Z,75.54
2023-08-29T01:57:34.658Z,75.54
2023-08-29T01:57:44.708Z,75.54
2023-08-29T01:57:54.763Z,75.54
2023-08-29T01:58:05.218Z,75.54
2023-08-29T01:58:14.889Z,75.54
2023-08-29T01:58:24.918Z,75.54
2023-08-29T01:58:34.991Z,75.54
2023-08-29T01:58:45.028Z,75.54
2023-08-29T01:58:55.064Z,75.54
2023-08-29T01:59:05.093Z,75.43
2023-08-29T01:59:15.127Z,75.54
2023-08-29T01:59:25.155Z,75.43
2023-08-29T01:59:35.190Z,75.54
2023-08-29T01:59:45.243Z,75.54
2023-08-29T01:59:55.274Z,75.54
2023-08-29T02:00:05.349Z,75.54
2023-08-29T02:00:15.354Z,75.54
2023-08-29T02:00:25.373Z,75.54
2023-08-29T02:00:35.405Z,75.54
2023-08-29T02:00:45.498Z,75.54
2023-08-29T02:00:56.190Z,75.63
2023-08-29T02:01:20.987Z,75.63
2023-08-29T02:01:23.239Z,75.63
2023-08-29T02:01:27.429Z,75.63
2023-08-29T02:01:37.455Z,75.63
2023-08-29T02:01:47.564Z,75.63
2023-08-29T02:01:57.647Z,75.63
2023-08-29T02:02:07.717Z,75.63
2023-08-29T02:02:17.794Z,75.63
2023-08-29T02:02:27.918Z,75.74
2023-08-29T02:02:37.965Z,75.74
2023-08-29T02:02:48.033Z,75.74
2023-08-29T02:02:58.080Z,75.74
2023-08-29T02:03:08.276Z,75.74
2023-08-29T02:03:18.163Z,75.74
2023-08-29T02:03:28.234Z,75.74
2023-08-29T02:03:38.310Z,75.74
2023-08-29T02:03:48.419Z,75.74
2023-08-29T02:03:58.456Z,75.84
2023-08-29T02:04:08.599Z,75.74
2023-08-29T02:04:18.658Z,75.74
2023-08-29T02:04:28.725Z,75.74
2023-08-29T02:04:38.819Z,75.74
2023-08-29T02:04:48.898Z,75.74
2023-08-29T02:04:58.989Z,75.74
2023-08-29T02:05:09.114Z,75.74
2023-08-29T02:05:19.186Z,75.74
2023-08-29T02:05:29.259Z,75.74
2023-08-29T02:05:39.328Z,75.74
2023-08-29T02:05:49.404Z,75.74
2023-08-29T02:05:59.444Z,75.74
2023-08-29T02:06:09.422Z,75.84
2023-08-29T02:06:19.466Z,75.84
2023-08-29T02:06:29.500Z,75.84
2023-08-29T02:06:39.565Z,75.84
2023-08-29T02:06:49.601Z,75.74
2023-08-29T02:06:59.705Z,75.74
2023-08-29T02:07:09.770Z,75.74
2023-08-29T02:07:19.809Z,75.74
2023-08-29T02:07:29.850Z,75.74
2023-08-29T02:07:39.875Z,75.74
2023-08-29T02:07:49.902Z,75.74
2023-08-29T02:07:59.934Z,75.74
2023-08-29T02:08:10.055Z,75.63
2023-08-29T02:08:20.096Z,75.63
2023-08-29T02:08:30.124Z,75.63
2023-08-29T02:08:40.163Z,75.63
2023-08-29T02:08:50.195Z,75.74
2023-08-29T02:09:00.242Z,75.74
2023-08-29T02:09:10.268Z,75.74
2023-08-29T02:09:20.297Z,75.74
2023-08-29T02:09:30.328Z,75.84